Time;durP1;ratioP1;P1;durP2;ratioP2;P2;SDS_P1;SDS_P2;PMS_P1;PMS_P2;Temp;Humidity;BMP_temperature;BMP_pressure;BME280_temperature;BME280_humidity;BME280_pressure;Samples;Min_cycle;Max_cycle;Signal;HPM_P1;HPM_P2
2024/01/10 00:01:02;;;;;;;1.40;0.40;;;;;;;-8.26;83.87;102988.13;5055308;28;20453;-67
2024/01/10 00:03:29;;;;;;;1.60;0.73;;;;;;;-8.21;82.55;102978.09;5056023;28;20257;-67
2024/01/10 00:05:57;;;;;;;1.40;0.40;;;;;;;-8.30;82.33;102974.38;5055406;28;20298;-67
2024/01/10 00:08:24;;;;;;;2.13;1.03;;;;;;;-8.45;84.00;102965.91;5055618;28;20521;-67
2024/01/10 00:10:51;;;;;;;1.40;0.30;;;;;;;-8.36;84.12;102974.06;5055677;28;20537;-67
2024/01/10 00:13:17;;;;;;;1.40;0.40;;;;;;;-8.32;83.15;102968.41;5055479;28;20543;-67
2024/01/10 00:15:44;;;;;;;1.40;0.40;;;;;;;-8.35;82.68;102983.56;5055220;28;20234;-67
2024/01/10 00:18:10;;;;;;;1.90;0.93;;;;;;;-8.39;82.93;102977.75;5054620;28;20211;-68
2024/01/10 00:20:37;;;;;;;1.75;1.08;;;;;;;-8.51;83.54;102976.88;5054962;28;20244;-68
2024/01/10 00:23:07;;;;;;;1.70;0.77;;;;;;;-8.60;84.40;102964.44;5054743;28;20226;-68
2024/01/10 00:25:34;;;;;;;1.40;0.30;;;;;;;-8.51;83.62;102963.75;5055260;28;20521;-68
2024/01/10 00:28:00;;;;;;;1.42;0.40;;;;;;;-8.63;84.00;102972.56;5055512;28;20208;-69
2024/01/10 00:30:27;;;;;;;1.40;0.40;;;;;;;-8.68;85.00;102964.19;5054822;28;20199;-67
2024/01/10 00:32:54;;;;;;;1.75;0.60;;;;;;;-8.57;84.74;102972.09;5054728;28;20224;-67
2024/01/10 00:35:20;;;;;;;1.73;1.00;;;;;;;-8.69;83.85;102967.75;5055159;28;20609;-67
2024/01/10 00:37:47;;;;;;;1.43;0.40;;;;;;;-8.80;84.08;102960.69;5054550;28;20470;-67
2024/01/10 00:40:15;;;;;;;1.50;0.63;;;;;;;-8.57;84.40;102958.13;5054665;28;20473;-66
2024/01/10 00:42:42;;;;;;;1.60;0.82;;;;;;;-8.69;83.74;102957.25;5054492;28;20226;-67
2024/01/10 00:45:09;;;;;;;1.48;0.40;;;;;;;-8.84;85.05;102953.16;5054421;28;20231;-67
2024/01/10 00:47:35;;;;;;;1.50;0.60;;;;;;;-8.69;84.12;102958.09;5054572;28;20758;-67
2024/01/10 00:50:02;;;;;;;1.70;0.98;;;;;;;-8.62;83.38;102953.22;5054589;28;20763;-67
2024/01/10 00:52:29;;;;;;;1.40;0.40;;;;;;;-8.62;83.74;102949.78;5054726;28;20255;-67
2024/01/10 00:54:55;;;;;;;1.40;0.40;;;;;;;-8.66;84.50;102943.91;5054370;28;20630;-67
2024/01/10 00:57:23;;;;;;;1.50;0.63;;;;;;;-8.54;84.22;102945.59;5054264;28;20619;-67
2024/01/10 00:59:50;;;;;;;1.40;0.40;;;;;;;-8.56;83.68;102942.25;5054167;28;20641;-68
2024/01/10 01:02:16;;;;;;;1.48;0.45;;;;;;;-8.74;83.52;102943.63;5054090;28;20230;-67
2024/01/10 01:04:43;;;;;;;1.40;0.50;;;;;;;-8.94;84.79;102938.09;5054316;28;20314;-67
2024/01/10 01:07:10;;;;;;;1.50;0.52;;;;;;;-8.87;85.39;102937.63;5054278;28;20228;-68
2024/01/10 01:09:36;;;;;;;3.55;1.25;;;;;;;-8.81;85.46;102932.75;5054125;28;20648;-68
2024/01/10 01:12:04;;;;;;;2.28;1.70;;;;;;;-8.74;86.31;102941.84;5054046;28;20259;-67
2024/01/10 01:14:32;;;;;;;1.52;0.63;;;;;;;-8.64;85.88;102936.72;5054212;28;20208;-68
2024/01/10 01:16:58;;;;;;;1.40;0.30;;;;;;;-8.60;84.31;102946.06;5054294;28;20239;-67
2024/01/10 01:19:25;;;;;;;1.90;1.10;;;;;;;-8.58;83.04;102943.31;5053885;28;20690;-68
2024/01/10 01:21:52;;;;;;;1.40;0.40;;;;;;;-8.63;82.79;102943.69;5053742;28;20469;-67
2024/01/10 01:24:18;;;;;;;1.50;0.50;;;;;;;-8.63;83.48;102946.31;5053917;28;20290;-67
2024/01/10 01:26:45;;;;;;;3.33;1.08;;;;;;;-8.74;82.74;102943.63;5053597;28;20217;-68
2024/01/10 01:29:11;;;;;;;1.40;0.40;;;;;;;-8.94;81.09;102943.38;5053148;28;20210;-68
2024/01/10 01:31:40;;;;;;;1.40;0.30;;;;;;;-8.95;82.30;102939.03;5053869;28;20637;-67
2024/01/10 01:34:06;;;;;;;1.65;0.82;;;;;;;-8.97;83.86;102937.50;5053948;28;20199;-67
2024/01/10 01:36:34;;;;;;;1.83;0.93;;;;;;;-8.82;83.05;102943.38;5053838;28;20253;-67
2024/01/10 01:39:00;;;;;;;1.73;0.57;;;;;;;-8.79;81.76;102941.38;5053344;28;20211;-67
2024/01/10 01:41:27;;;;;;;1.40;0.30;;;;;;;-8.77;81.50;102949.13;5053898;28;20259;-67
2024/01/10 01:43:54;;;;;;;1.40;0.40;;;;;;;-8.83;81.32;102949.59;5053552;28;20651;-67
2024/01/10 01:46:20;;;;;;;1.40;0.38;;;;;;;-8.96;83.17;102939.16;5053760;28;20210;-67
2024/01/10 01:48:49;;;;;;;1.95;1.25;;;;;;;-9.04;83.70;102944.13;5053852;28;20235;-68
2024/01/10 01:51:17;;;;;;;1.48;0.50;;;;;;;-9.11;83.62;102935.91;5053506;28;20702;-68
2024/01/10 01:53:45;;;;;;;1.80;0.70;;;;;;;-9.18;85.17;102934.66;5053177;28;20258;-68
2024/01/10 01:56:14;;;;;;;1.40;0.30;;;;;;;-9.11;85.37;102930.66;5053606;28;20200;-67
2024/01/10 01:58:41;;;;;;;1.40;0.50;;;;;;;-9.21;85.19;102935.75;5053318;28;20747;-67
2024/01/10 02:01:08;;;;;;;1.67;0.85;;;;;;;-9.25;84.72;102933.44;5053790;28;20223;-67
2024/01/10 02:03:35;;;;;;;1.90;1.23;;;;;;;-9.23;85.97;102937.63;5053370;28;20723;-67
2024/01/10 02:06:03;;;;;;;1.40;0.40;;;;;;;-9.14;86.14;102938.75;5053586;28;20245;-67
2024/01/10 02:08:31;;;;;;;1.40;0.40;;;;;;;-8.97;85.68;102933.06;5053435;28;20204;-67
2024/01/10 02:10:57;;;;;;;1.40;0.40;;;;;;;-9.02;83.13;102926.50;5053540;28;20211;-67
2024/01/10 02:13:24;;;;;;;1.40;0.40;;;;;;;-9.09;81.78;102927.91;5053312;28;20204;-67
2024/01/10 02:15:51;;;;;;;3.05;2.28;;;;;;;-9.13;82.38;102927.28;5053676;28;20291;-67
2024/01/10 02:18:18;;;;;;;1.40;0.40;;;;;;;-9.08;83.51;102935.66;5053450;28;20244;-66
2024/01/10 02:20:44;;;;;;;1.40;0.40;;;;;;;-9.12;84.75;102934.19;5053391;28;20219;-66
2024/01/10 02:23:12;;;;;;;1.50;0.60;;;;;;;-8.96;83.77;102937.38;5053698;28;20259;-67
2024/01/10 02:25:41;;;;;;;1.65;1.02;;;;;;;-8.84;84.49;102924.28;5053787;28;20207;-67
2024/01/10 02:28:09;;;;;;;1.75;0.88;;;;;;;-8.93;84.81;102931.06;5053033;28;20747;-67
2024/01/10 02:30:35;;;;;;;1.83;0.88;;;;;;;-8.86;84.42;102929.63;5053420;28;20306;-66
2024/01/10 02:33:02;;;;;;;2.08;0.80;;;;;;;-8.80;81.92;102930.97;5053380;28;20306;-66
2024/01/10 02:35:30;;;;;;;4.05;1.50;;;;;;;-8.91;80.49;102937.03;5053370;28;20250;-67
2024/01/10 02:37:57;;;;;;;1.73;1.05;;;;;;;-9.08;82.99;102937.44;5053085;28;20239;-67
2024/01/10 02:40:23;;;;;;;1.50;0.52;;;;;;;-9.11;83.69;102946.41;5053733;28;20299;-69
2024/01/10 02:42:51;;;;;;;13.15;4.32;;;;;;;-9.10;83.39;102929.69;5056405;28;20599;-68
2024/01/10 02:45:18;;;;;;;1.40;0.38;;;;;;;-9.21;83.88;102929.63;5057098;28;20204;-67
2024/01/10 02:47:45;;;;;;;1.40;0.40;;;;;;;-9.16;82.60;102927.53;5056954;28;20228;-68
2024/01/10 02:50:12;;;;;;;3.78;1.73;;;;;;;-9.11;82.74;102930.66;5056778;28;20200;-68
2024/01/10 02:52:39;;;;;;;1.40;0.30;;;;;;;-9.18;83.69;102924.16;5057072;28;20314;-68
2024/01/10 02:55:06;;;;;;;1.40;0.50;;;;;;;-9.06;83.43;102928.53;5056616;28;20651;-68
2024/01/10 02:57:33;;;;;;;1.50;0.65;;;;;;;-9.34;81.94;102921.00;5056596;28;20210;-68
2024/01/10 03:00:01;;;;;;;1.40;0.40;;;;;;;-9.23;82.70;102918.44;5056437;28;20231;-68
2024/01/10 03:02:27;;;;;;;1.40;0.30;;;;;;;-9.08;82.84;102909.41;5056888;28;20314;-68
2024/01/10 03:04:54;;;;;;;1.50;0.70;;;;;;;-9.18;84.11;102906.63;5056832;28;20289;-68
2024/01/10 03:07:20;;;;;;;4.63;2.15;;;;;;;-9.24;83.62;102908.91;5056075;28;20208;-68
2024/01/10 03:09:47;;;;;;;1.55;0.68;;;;;;;-9.36;84.52;102907.16;5057106;28;20239;-68
2024/01/10 03:12:14;;;;;;;2.30;0.95;;;;;;;-9.25;84.45;102908.06;5056397;28;20315;-68
2024/01/10 03:14:40;;;;;;;1.80;1.10;;;;;;;-9.30;84.84;102904.06;5056475;28;20235;-68
2024/01/10 03:17:08;;;;;;;1.40;0.40;;;;;;;-9.24;85.79;102903.66;5056247;28;20290;-68
2024/01/10 03:19:37;;;;;;;1.50;0.65;;;;;;;-9.26;85.26;102900.28;5056295;28;20290;-68
2024/01/10 03:22:04;;;;;;;2.33;1.95;;;;;;;-9.27;84.69;102896.81;5056203;28;20232;-68
2024/01/10 03:24:30;;;;;;;3.80;3.10;;;;;;;-9.23;83.70;102902.69;5056652;28;20196;-68
2024/01/10 03:26:57;;;;;;;1.40;0.40;;;;;;;-9.08;82.43;102898.91;5056499;28;20295;-68
2024/01/10 03:29:23;;;;;;;1.40;0.57;;;;;;;-8.95;82.02;102898.81;5056205;28;20649;-68
2024/01/10 03:31:50;;;;;;;1.40;0.40;;;;;;;-8.94;82.04;102901.34;5055538;28;20255;-68
2024/01/10 03:34:18;;;;;;;1.40;0.40;;;;;;;-9.00;83.64;102907.06;5055954;28;20246;-68
2024/01/10 03:36:45;;;;;;;1.38;0.30;;;;;;;-9.09;83.41;102907.75;5056072;28;20256;-68
2024/01/10 03:39:11;;;;;;;4.90;1.02;;;;;;;-8.99;83.01;102908.72;5055594;28;20302;-68
2024/01/10 03:41:38;;;;;;;2.65;1.88;;;;;;;-9.10;83.75;102898.19;5055763;28;20263;-68
2024/01/10 03:46:45;;;;;;;2.03;1.33;;;;;;;-9.16;85.07;102896.88;5013808;28;20680;-68
2024/01/10 03:49:12;;;;;;;1.70;0.95;;;;;;;-9.23;83.68;102900.06;5013914;28;20211;-68
2024/01/10 03:51:41;;;;;;;1.42;0.45;;;;;;;-9.25;83.25;102901.94;5013701;28;20791;-67
2024/01/10 03:54:08;;;;;;;2.40;1.15;;;;;;;-9.14;83.04;102899.38;5012740;28;20722;-67
2024/01/10 03:56:34;;;;;;;7.25;1.27;;;;;;;-9.10;82.90;102894.75;5013560;28;20236;-67
2024/01/10 03:59:02;;;;;;;1.40;0.40;;;;;;;-8.90;82.13;102892.31;5013144;28;20317;-67
2024/01/10 04:01:28;;;;;;;1.38;0.40;;;;;;;-8.97;81.92;102892.88;5013237;28;20229;-68
2024/01/10 04:03:55;;;;;;;1.40;0.30;;;;;;;-9.07;83.83;102890.09;5013271;28;20296;-68
2024/01/10 04:06:22;;;;;;;3.30;3.00;;;;;;;-9.16;84.18;102890.78;5013484;28;20293;-68
2024/01/10 04:08:50;;;;;;;1.40;0.40;;;;;;;-9.11;84.21;102877.34;5013328;28;20677;-68
2024/01/10 04:11:16;;;;;;;5.95;3.15;;;;;;;-9.09;84.73;102881.50;5012967;28;20240;-68
2024/01/10 04:13:44;;;;;;;1.50;0.50;;;;;;;-9.18;84.27;102890.06;5013197;28;20300;-67
2024/01/10 04:16:11;;;;;;;1.40;0.40;;;;;;;-9.31;84.26;102881.41;5012985;28;20296;-68
2024/01/10 04:18:37;;;;;;;8.82;3.75;;;;;;;-9.18;84.98;102877.78;5051129;28;20234;-68
2024/01/10 04:21:04;;;;;;;3.88;2.60;;;;;;;-9.26;85.30;102884.53;5054781;28;20263;-68
2024/01/10 04:23:33;;;;;;;1.40;0.30;;;;;;;-9.33;85.08;102883.34;5054723;28;20290;-68
2024/01/10 04:26:01;;;;;;;2.58;1.27;;;;;;;-9.43;83.76;102884.03;5054931;28;20211;-69
2024/01/10 04:28:28;;;;;;;1.40;0.50;;;;;;;-9.42;85.44;102875.19;5054753;28;20298;-68
2024/01/10 04:30:55;;;;;;;1.40;0.40;;;;;;;-9.41;85.03;102874.25;5054752;28;20230;-68
2024/01/10 04:33:21;;;;;;;1.40;0.38;;;;;;;-9.49;85.03;102873.97;5054579;28;20220;-68
2024/01/10 04:35:48;;;;;;;1.63;0.95;;;;;;;-9.41;84.16;102876.84;5054941;28;20236;-67
2024/01/10 04:38:14;;;;;;;2.70;1.92;;;;;;;-9.37;84.92;102884.50;5054110;28;20262;-67
2024/01/10 04:40:41;;;;;;;1.40;0.38;;;;;;;-9.34;85.07;102879.88;5054540;28;20229;-67
2024/01/10 04:43:09;;;;;;;1.70;0.77;;;;;;;-9.22;84.45;102880.75;5054401;28;20770;-67
2024/01/10 04:45:36;;;;;;;1.40;0.45;;;;;;;-9.01;83.71;102873.88;5054082;28;20533;-67
2024/01/10 04:48:03;;;;;;;1.40;0.38;;;;;;;-8.90;82.97;102876.53;5053875;28;20654;-68
2024/01/10 04:50:29;;;;;;;1.80;0.75;;;;;;;-8.97;84.48;102877.13;5054534;28;20200;-68
2024/01/10 04:52:56;;;;;;;1.40;0.38;;;;;;;-8.99;85.30;102874.59;5053647;28;20231;-68
2024/01/10 04:55:22;;;;;;;1.70;1.20;;;;;;;-9.01;85.60;102873.06;5054107;28;20207;-68
2024/01/10 04:57:49;;;;;;;5.05;2.10;;;;;;;-9.05;85.71;102882.94;5054110;28;20746;-68
2024/01/10 05:00:18;;;;;;;1.40;0.40;;;;;;;-8.99;85.38;102877.22;5054413;28;20261;-68
2024/01/10 05:02:44;;;;;;;1.38;0.38;;;;;;;-8.90;84.13;102876.53;5054058;28;20228;-68
2024/01/10 05:05:11;;;;;;;4.25;1.75;;;;;;;-8.93;83.13;102876.78;5053741;28;20216;-69
2024/01/10 05:07:37;;;;;;;6.60;2.95;;;;;;;-8.98;84.28;102871.03;5054095;28;20210;-69
2024/01/10 05:10:05;;;;;;;1.40;0.32;;;;;;;-8.96;84.41;102877.00;5054372;28;20634;-69
2024/01/10 05:12:32;;;;;;;2.17;1.50;;;;;;;-9.08;83.49;102884.94;5053761;28;20590;-69
2024/01/10 05:14:58;;;;;;;1.80;0.85;;;;;;;-8.94;83.72;102880.34;5054048;28;20446;-70
2024/01/10 05:17:26;;;;;;;4.88;1.55;;;;;;;-8.93;83.98;102871.53;5054186;28;20235;-70
2024/01/10 05:19:54;;;;;;;1.50;0.52;;;;;;;-9.14;82.02;102881.00;5054632;28;20239;-68
2024/01/10 05:22:22;;;;;;;1.48;0.40;;;;;;;-9.28;82.81;102879.41;5053866;28;20227;-68
2024/01/10 05:24:48;;;;;;;4.85;2.83;;;;;;;-9.38;83.46;102888.06;5054139;28;20684;-68
2024/01/10 05:27:15;;;;;;;1.40;0.30;;;;;;;-9.37;83.37;102882.72;5053865;28;20299;-68
2024/01/10 05:29:42;;;;;;;2.22;1.73;;;;;;;-9.17;83.64;102883.84;5053737;28;20290;-69
2024/01/10 05:32:08;;;;;;;1.50;0.43;;;;;;;-9.00;82.37;102887.84;5053187;28;20756;-68
2024/01/10 05:34:36;;;;;;;1.95;1.42;;;;;;;-8.94;81.98;102880.34;5053457;28;20242;-68
2024/01/10 05:37:03;;;;;;;1.40;0.50;;;;;;;-8.86;81.33;102882.38;5053553;28;20350;-68
2024/01/10 05:39:29;;;;;;;1.60;0.77;;;;;;;-8.91;81.65;102876.66;5067342;22;20710;-66
2024/01/10 05:41:56;;;;;;;11.68;2.45;;;;;;;-9.02;83.14;102866.97;5052919;28;20318;-66
2024/01/10 05:44:23;;;;;;;1.50;0.50;;;;;;;-9.27;82.49;102873.22;5053096;28;20239;-66
2024/01/10 05:46:49;;;;;;;9.77;2.63;;;;;;;-9.22;83.20;102876.31;5053005;28;20547;-66
2024/01/10 05:49:16;;;;;;;1.50;0.52;;;;;;;-9.16;82.97;102869.81;5053045;28;20295;-66
2024/01/10 05:51:44;;;;;;;1.67;0.77;;;;;;;-9.35;82.73;102872.94;5052508;28;20377;-66
2024/01/10 05:54:10;;;;;;;1.60;0.65;;;;;;;-9.50;83.47;102874.09;5052997;28;20738;-66
2024/01/10 05:56:38;;;;;;;1.80;0.85;;;;;;;-9.46;83.66;102872.91;5052855;28;20660;-66
2024/01/10 05:59:05;;;;;;;1.40;0.40;;;;;;;-9.44;84.24;102871.84;5052791;28;20286;-66
2024/01/10 06:01:31;;;;;;;1.40;0.30;;;;;;;-9.37;85.89;102868.78;5052604;28;20310;-66
2024/01/10 06:03:58;;;;;;;2.45;2.05;;;;;;;-9.44;83.66;102874.44;5052829;28;20204;-65
2024/01/10 06:06:25;;;;;;;2.08;1.30;;;;;;;-9.53;84.43;102875.13;5053230;28;20296;-66
2024/01/10 06:08:52;;;;;;;1.40;0.40;;;;;;;-9.34;84.02;102872.00;5052898;28;20294;-66
2024/01/10 06:11:20;;;;;;;1.83;1.15;;;;;;;-9.24;83.80;102866.91;5053138;28;20227;-66
2024/01/10 06:13:47;;;;;;;1.40;0.40;;;;;;;-9.38;84.09;102865.31;5053453;28;20238;-66
2024/01/10 06:16:14;;;;;;;4.32;1.88;;;;;;;-9.45;84.35;102872.78;5054182;28;20204;-66
2024/01/10 06:18:41;;;;;;;1.50;0.47;;;;;;;-9.61;82.81;102860.91;5056838;28;20238;-66
2024/01/10 06:21:07;;;;;;;1.40;0.40;;;;;;;-9.37;82.54;102861.75;5056963;28;20305;-66
2024/01/10 06:23:34;;;;;;;1.55;0.65;;;;;;;-9.31;82.33;102870.94;5057050;28;20660;-66
2024/01/10 06:26:02;;;;;;;1.40;0.40;;;;;;;-9.33;82.69;102850.06;5056874;28;20208;-66
2024/01/10 06:28:29;;;;;;;1.40;0.40;;;;;;;-9.47;83.52;102845.84;5057132;28;20238;-67
2024/01/10 06:30:55;;;;;;;1.40;0.30;;;;;;;-9.51;84.50;102854.06;5056869;28;20208;-65
2024/01/10 06:33:22;;;;;;;1.50;0.50;;;;;;;-9.51;85.30;102849.66;5057045;28;20230;-67
2024/01/10 06:35:48;;;;;;;1.40;0.40;;;;;;;-9.45;85.97;102850.97;5057005;28;20212;-66
2024/01/10 06:38:16;;;;;;;1.45;0.45;;;;;;;-9.29;85.05;102858.56;5056714;28;20212;-66
2024/01/10 06:40:44;;;;;;;1.50;0.65;;;;;;;-9.30;84.45;102862.09;5056777;28;20212;-66
2024/01/10 06:43:12;;;;;;;1.77;1.10;;;;;;;-9.43;83.96;102854.31;5056166;28;20227;-66
2024/01/10 06:45:39;;;;;;;1.40;0.30;;;;;;;-9.49;84.58;102860.00;5056144;28;20207;-67
2024/01/10 06:48:07;;;;;;;1.60;1.08;;;;;;;-9.43;83.16;102849.06;5056944;28;20208;-67
2024/01/10 06:50:34;;;;;;;1.90;1.25;;;;;;;-9.33;82.50;102850.06;5056762;28;20257;-67
2024/01/10 06:53:00;;;;;;;2.03;1.15;;;;;;;-9.52;81.76;102857.59;5056171;28;20301;-67
2024/01/10 06:55:29;;;;;;;1.65;0.80;;;;;;;-9.44;80.70;102852.63;5056329;28;20258;-67
2024/01/10 06:57:55;;;;;;;1.70;0.85;;;;;;;-9.44;80.43;102850.84;5056297;28;20208;-66
2024/01/10 07:00:24;;;;;;;1.40;0.30;;;;;;;-9.51;81.61;102857.50;5056559;28;20238;-66
2024/01/10 07:02:50;;;;;;;1.80;1.35;;;;;;;-9.54;81.56;102849.03;5055980;28;20227;-68
2024/01/10 07:05:19;;;;;;;1.40;0.40;;;;;;;-9.72;81.72;102843.34;5056383;28;20204;-67
2024/01/10 07:07:46;;;;;;;1.60;0.68;;;;;;;-9.67;82.22;102843.84;5056339;28;20207;-67
2024/01/10 07:10:13;;;;;;;1.40;0.40;;;;;;;-9.70;82.79;102849.31;5056417;28;20207;-66
2024/01/10 07:12:39;;;;;;;1.40;0.40;;;;;;;-9.82;81.97;102844.97;5056009;28;20650;-66
2024/01/10 07:15:07;;;;;;;2.35;1.15;;;;;;;-9.87;82.36;102852.31;5056142;28;20200;-67
2024/01/10 07:17:35;;;;;;;1.77;1.10;;;;;;;-9.97;83.51;102852.97;5055823;28;20200;-67
2024/01/10 07:20:03;;;;;;;1.40;0.40;;;;;;;-9.85;83.74;102847.81;5055603;28;20651;-67
2024/01/10 07:22:29;;;;;;;1.40;0.40;;;;;;;-9.84;84.48;102849.47;5056060;28;20227;-68
2024/01/10 07:24:56;;;;;;;1.45;0.40;;;;;;;-9.95;82.65;102850.25;5056126;28;20237;-68
2024/01/10 07:27:23;;;;;;;1.40;0.30;;;;;;;-9.87;83.65;102852.31;5055944;28;20253;-69
2024/01/10 07:29:50;;;;;;;1.50;0.50;;;;;;;-9.68;84.29;102847.44;5055734;28;20235;-66
2024/01/10 07:32:17;;;;;;;1.40;0.38;;;;;;;-9.61;84.29;102847.78;5055523;28;20647;-71
2024/01/10 07:34:45;;;;;;;2.03;1.15;;;;;;;-9.46;84.04;102852.75;5056148;28;20212;-70
2024/01/10 07:37:12;;;;;;;1.38;0.30;;;;;;;-9.44;82.37;102850.00;5055654;28;20295;-71
2024/01/10 07:39:39;;;;;;;1.40;0.38;;;;;;;-9.36;82.24;102857.31;5055353;28;20281;-71
2024/01/10 07:42:06;;;;;;;2.70;1.58;;;;;;;-9.38;82.13;102856.59;5055346;28;20232;-68
2024/01/10 07:44:33;;;;;;;1.40;0.40;;;;;;;-9.49;82.09;102857.38;5055467;28;20231;-70
2024/01/10 07:46:59;;;;;;;3.50;1.25;;;;;;;-9.34;81.89;102853.66;5055301;28;20214;-69
2024/01/10 07:49:26;;;;;;;1.40;0.30;;;;;;;-9.23;81.12;102858.91;5055401;28;20294;-70
2024/01/10 07:51:54;;;;;;;1.40;0.40;;;;;;;-9.21;81.05;102857.03;5054973;28;20259;-67
2024/01/10 07:54:20;;;;;;;9.48;4.53;;;;;;;-9.18;80.00;102862.03;5055247;28;20294;-69
2024/01/10 07:56:47;;;;;;;1.40;0.40;;;;;;;-9.28;80.83;102865.47;5055236;28;20210;-69
2024/01/10 07:59:15;;;;;;;1.40;0.50;;;;;;;-9.43;83.19;102857.78;5054980;28;20596;-66
2024/01/10 08:01:45;;;;;;;2.65;2.05;;;;;;;-9.47;83.81;102866.00;5055411;28;20318;-67
2024/01/10 08:04:12;;;;;;;1.77;0.90;;;;;;;-9.48;84.16;102859.88;5054958;28;20675;-68
2024/01/10 08:06:38;;;;;;;1.70;0.98;;;;;;;-9.27;84.49;102865.34;5055025;28;20294;-68
2024/01/10 08:09:06;;;;;;;1.40;0.40;;;;;;;-9.20;86.26;102866.56;5054691;28;20276;-68
2024/01/10 08:11:34;;;;;;;2.33;1.48;;;;;;;-9.12;86.98;102865.97;5054921;28;20232;-67
2024/01/10 08:14:00;;;;;;;1.40;0.40;;;;;;;-9.04;86.50;102857.53;5054963;28;20286;-69
2024/01/10 08:16:27;;;;;;;4.18;1.95;;;;;;;-9.00;86.63;102861.59;5055113;28;20298;-72
2024/01/10 08:18:54;;;;;;;1.60;0.80;;;;;;;-8.95;85.64;102865.53;5054475;28;20295;-72
2024/01/10 08:21:19;;;;;;;1.40;0.40;;;;;;;-8.92;86.24;102861.84;5054295;28;20255;-72
2024/01/10 08:23:46;;;;;;;3.10;1.60;;;;;;;-8.92;87.09;102856.59;5054482;28;20243;-72
2024/01/10 08:26:14;;;;;;;1.40;0.30;;;;;;;-8.90;86.76;102860.78;5054717;28;20291;-72
2024/01/10 08:28:42;;;;;;;1.40;0.40;;;;;;;-8.78;88.36;102855.53;5054453;28;20743;-72
2024/01/10 08:31:09;;;;;;;1.40;0.40;;;;;;;-8.65;89.47;102857.09;5054598;28;20208;-72
2024/01/10 08:33:35;;;;;;;1.67;0.98;;;;;;;-8.52;89.56;102849.09;5055284;28;20257;-72
2024/01/10 08:36:02;;;;;;;2.38;1.60;;;;;;;-8.33;89.16;102855.50;5054787;28;20242;-71
2024/01/10 08:38:29;;;;;;;1.30;0.30;;;;;;;-8.19;88.83;102865.78;5053683;28;20237;-71
2024/01/10 08:40:55;;;;;;;2.15;1.95;;;;;;;-8.14;88.71;102863.63;5054653;28;20257;-71
2024/01/10 08:43:23;;;;;;;1.88;0.98;;;;;;;-8.04;89.04;102864.56;5054028;28;20231;-71
2024/01/10 08:45:50;;;;;;;1.40;0.40;;;;;;;-7.92;89.27;102868.03;5053911;28;20635;-71
2024/01/10 08:48:16;;;;;;;2.60;1.55;;;;;;;-7.88;90.05;102875.53;5054948;28;20390;-70
2024/01/10 08:50:43;;;;;;;2.60;1.80;;;;;;;-7.80;90.98;102871.44;5054147;28;20294;-70
2024/01/10 08:53:11;;;;;;;1.40;0.30;;;;;;;-7.72;91.82;102869.88;5054083;28;20251;-70
2024/01/10 08:55:37;;;;;;;3.17;1.95;;;;;;;-7.49;91.50;102870.63;5054045;28;20285;-70
2024/01/10 08:58:04;;;;;;;1.85;1.27;;;;;;;-7.35;91.42;102866.84;5053704;28;20295;-71
2024/01/10 09:00:32;;;;;;;1.50;0.50;;;;;;;-7.22;91.10;102869.31;5054133;28;20779;-71
2024/01/10 09:02:59;;;;;;;5.93;2.58;;;;;;;-7.15;91.50;102863.41;5053847;28;20238;-71
2024/01/10 09:05:25;;;;;;;5.40;3.85;;;;;;;-7.12;92.02;102867.59;5054337;28;20610;-71
2024/01/10 09:07:53;;;;;;;1.40;0.30;;;;;;;-7.03;92.14;102871.25;5054229;28;20292;-69
2024/01/10 09:10:21;;;;;;;2.03;0.77;;;;;;;-6.88;92.26;102875.22;5054218;28;20449;-71
2024/01/10 09:12:47;;;;;;;18.65;3.97;;;;;;;-6.70;91.76;102864.94;5053419;28;20651;-71
2024/01/10 09:15:14;;;;;;;1.70;0.70;;;;;;;-6.58;91.49;102868.31;5053860;28;20574;-71
2024/01/10 09:17:43;;;;;;;1.87;1.00;;;;;;;-6.44;91.45;102871.44;5054119;28;20435;-72
2024/01/10 09:20:10;;;;;;;1.67;0.90;;;;;;;-6.27;90.98;102874.41;5053995;28;20526;-71
2024/01/10 09:22:37;;;;;;;1.60;0.57;;;;;;;-6.19;90.83;102870.16;5053878;28;20570;-72
2024/01/10 09:25:05;;;;;;;1.60;0.50;;;;;;;-6.13;90.66;102866.97;5053622;28;20212;-72
2024/01/10 09:27:33;;;;;;;1.70;0.87;;;;;;;-6.04;90.66;102864.50;5053648;28;20431;-72
2024/01/10 09:30:01;;;;;;;2.43;1.83;;;;;;;-5.97;90.52;102861.19;5053416;28;20637;-71
2024/01/10 09:32:28;;;;;;;1.60;0.67;;;;;;;-5.91;90.11;102870.31;5053211;28;20467;-72
2024/01/10 09:34:56;;;;;;;1.70;0.67;;;;;;;-5.81;88.86;102865.06;5053826;28;20847;-72
2024/01/10 09:37:23;;;;;;;1.50;0.40;;;;;;;-5.71;88.29;102865.91;5053849;28;20787;-71
2024/01/10 09:39:50;;;;;;;3.20;2.03;;;;;;;-5.59;87.36;102868.28;5053010;28;20545;-71
2024/01/10 09:42:17;;;;;;;4.40;2.07;;;;;;;-5.52;86.73;102863.28;5053293;28;20858;-71
2024/01/10 09:44:43;;;;;;;1.87;0.87;;;;;;;-5.48;85.58;102853.28;5053622;28;20442;-71
2024/01/10 09:47:10;;;;;;;1.50;0.40;;;;;;;-5.40;84.80;102853.41;5053848;28;20442;-71
2024/01/10 09:49:37;;;;;;;1.50;0.40;;;;;;;-5.35;84.25;102853.84;5053205;28;20936;-71
2024/01/10 09:52:11;;;;;;;5.60;1.40;;;;;;;-5.23;84.11;102859.78;5056193;28;20545;-71
2024/01/10 09:54:41;;;;;;;1.73;0.93;;;;;;;-5.16;83.73;102855.63;5057610;28;20506;-71
2024/01/10 09:57:07;;;;;;;2.03;1.10;;;;;;;-5.03;83.64;102855.34;5057143;28;20805;-71
2024/01/10 09:59:34;;;;;;;1.93;0.97;;;;;;;-4.96;83.04;102854.59;5057817;28;20537;-71
2024/01/10 10:02:04;;;;;;;2.00;1.13;;;;;;;-4.86;82.02;102859.91;5057379;28;20454;-71
2024/01/10 10:04:31;;;;;;;4.20;1.50;;;;;;;-4.83;81.80;102852.50;5057359;28;20450;-72
2024/01/10 10:07:01;;;;;;;2.57;1.10;;;;;;;-4.72;81.45;102863.91;5057279;28;20934;-72
2024/01/10 10:09:31;;;;;;;10.43;3.37;;;;;;;-4.59;80.91;102856.47;5057312;28;20859;-71
2024/01/10 10:11:58;;;;;;;1.73;0.87;;;;;;;-4.54;80.14;102859.50;5057106;28;20454;-72
2024/01/10 10:14:28;;;;;;;2.03;1.53;;;;;;;-4.46;79.82;102853.50;5057154;28;20438;-71
2024/01/10 10:16:55;;;;;;;1.60;0.60;;;;;;;-4.40;78.62;102859.03;5057235;28;20973;-72
2024/01/10 10:19:25;;;;;;;1.80;1.10;;;;;;;-4.26;77.96;102862.19;5056972;28;20521;-72
2024/01/10 10:21:52;;;;;;;2.03;1.43;;;;;;;-4.22;77.20;102847.69;5056771;28;21016;-72
2024/01/10 10:24:19;;;;;;;2.90;2.10;;;;;;;-4.22;75.29;102842.38;5057712;28;20890;-72
2024/01/10 10:26:47;;;;;;;2.57;1.10;;;;;;;-4.15;74.32;102835.53;5056842;28;20533;-72
2024/01/10 10:29:18;;;;;;;4.57;2.70;;;;;;;-4.14;73.55;102843.31;5057232;28;20461;-72
2024/01/10 10:31:48;;;;;;;1.60;0.50;;;;;;;-4.13;73.15;102836.22;5056854;28;20544;-72
2024/01/10 10:34:21;;;;;;;3.30;2.70;;;;;;;-4.10;73.63;102836.75;5057288;28;20454;-72
2024/01/10 10:36:49;;;;;;;4.70;3.20;;;;;;;-4.01;73.03;102831.56;5056872;28;20476;-72
2024/01/10 10:39:17;;;;;;;3.90;2.80;;;;;;;-3.97;73.03;102828.47;5056314;28;20450;-72
2024/01/10 10:41:44;;;;;;;2.07;1.10;;;;;;;-3.94;73.34;102824.66;5056282;28;20466;-72
2024/01/10 10:44:18;;;;;;;3.97;2.87;;;;;;;-3.83;73.25;102811.22;5056505;28;20482;-72
2024/01/10 10:46:45;;;;;;;1.90;0.90;;;;;;;-3.71;73.54;102817.97;5056453;28;20915;-72
2024/01/10 10:49:13;;;;;;;1.60;0.70;;;;;;;-3.65;72.34;102821.81;5057626;28;20442;-72
2024/01/10 10:51:39;;;;;;;15.90;3.57;;;;;;;-3.61;71.92;102821.38;5056393;28;20465;-72
2024/01/10 10:54:08;;;;;;;6.07;1.83;;;;;;;-3.50;71.79;102820.28;5056648;28;20525;-72
2024/01/10 10:56:37;;;;;;;4.43;2.70;;;;;;;-3.37;71.14;102831.31;5056665;28;20496;-72
2024/01/10 10:59:04;;;;;;;3.60;1.80;;;;;;;-3.28;71.14;102829.56;5056230;28;20449;-72
2024/01/10 11:01:34;;;;;;;7.13;2.60;;;;;;;-3.20;70.53;102826.16;5056210;28;20476;-72
2024/01/10 11:04:01;;;;;;;3.43;2.00;;;;;;;-3.10;69.70;102829.53;5056658;28;20560;-72
2024/01/10 11:06:28;;;;;;;6.77;4.27;;;;;;;-3.01;69.03;102830.44;5056742;28;20435;-71
2024/01/10 11:09:07;;;;;;;3.30;1.37;;;;;;;-2.96;68.73;102839.59;5056182;28;20504;-71
2024/01/10 11:11:48;;;;;;;2.50;1.67;;;;;;;-2.82;67.89;102825.75;5056511;28;20493;-72
2024/01/10 11:14:28;;;;;;;3.10;1.90;;;;;;;-2.69;67.36;102827.16;5056028;28;20502;-71
2024/01/10 11:17:20;;;;;;;2.17;1.23;;;;;;;-2.55;67.33;102821.25;5055701;28;20432;-71
2024/01/10 11:20:14;;;;;;;2.53;1.43;;;;;;;-2.40;66.93;102822.31;5055695;28;20839;-71
2024/01/10 11:22:56;;;;;;;3.17;2.23;;;;;;;-2.25;66.52;102813.75;5047782;28;20486;-71
2024/01/10 11:25:23;;;;;;;7.57;3.53;;;;;;;-2.16;66.00;102815.44;5055936;28;20430;-71
2024/01/10 11:27:53;;;;;;;2.33;1.67;;;;;;;-2.06;65.09;102818.78;5055771;28;20466;-71